MiSS Kyhlan — WDG9329 — position and weather

sailwx.info

Track history (hours):
 
Tides and Currents Weather Stations Pressure Air Temp Water Temp Dewpoint Dewpoint Depression Visibility Wind Speed Wind Dir Waves Ship Positions

MiSS Kyhlan

Owner: DARBOR Marine, LLC, Kenner, LA. More information available from US FCC via Universal Licensing System and Coast Guard Vessel Documentation Center.

Last reported at 2018-Feb-18 23:21 UTC. Time now 2018-Feb-20 07:35 UTC.
Position N 29°35' W 090°43'.

Length 15 m.

Type: Ship. MMSI: 366960410.

Date/timePositionNaut miles runAvg speedWind from/ knotsBaromVisibWave heightAir tempDewpointWater temp
2018-Feb-18 23:21N 29°35' W 090°43'  
2018-Feb-12 19:47N 29°35' W 090°43'0 0.0
2018-Feb-12 19:31N 29°35' W 090°43'0 0.0
2018-Feb-12 18:55N 29°35' W 090°43'0 0.0
2018-Feb-12 18:28N 29°35' W 090°43'0 0.0
2018-Feb-12 17:58N 29°35' W 090°43'0 0.0
2018-Feb-12 17:30N 29°35' W 090°43'1 1.4
2018-Feb-12 17:01N 29°35' W 090°43'2 4.3
2018-Feb-12 16:31N 29°36' W 090°40'0 0.4
2018-Feb-12 15:54N 29°36' W 090°40'2 5.5
2018-Feb-12 15:30N 29°36' W 090°43'2 3.3
2018-Feb-12 15:01N 29°35' W 090°43'0 0.0
2018-Feb-12 14:30N 29°35' W 090°43'0 0.0
2018-Feb-12 13:59N 29°35' W 090°43'0 0.0
2018-Feb-12 13:31N 29°35' W 090°43'0 0.0
2018-Feb-12 13:00N 29°35' W 090°43'0 0.0
2018-Feb-12 12:29N 29°35' W 090°43'0 0.0
2018-Feb-12 11:59N 29°35' W 090°43'0 0.0
2018-Feb-12 11:30N 29°35' W 090°43'0 0.0
2018-Feb-12 11:01N 29°35' W 090°43'0 0.0
2018-Feb-12 10:27N 29°35' W 090°43'0 0.0
2018-Feb-12 09:58N 29°35' W 090°43'0 0.0
2018-Feb-12 09:26N 29°35' W 090°43'0 0.0
2018-Feb-12 08:58N 29°35' W 090°43'0 0.0
2018-Feb-12 08:30N 29°35' W 090°43'0 0.0
2018-Feb-12 08:00N 29°35' W 090°43'0 0.0
2018-Feb-12 07:30N 29°35' W 090°43'0 0.0
2018-Feb-12 06:54N 29°35' W 090°43'0 0.0
2018-Feb-12 06:29N 29°35' W 090°43'0 0.0
2018-Feb-12 06:00N 29°35' W 090°43'0 0.0
2018-Feb-12 05:30N 29°35' W 090°43'0 0.0
2018-Feb-12 05:01N 29°35' W 090°43'0 0.0
2018-Feb-12 04:30N 29°35' W 090°43'0 0.4
2018-Feb-12 04:01N 29°35' W 090°43'2 4.4
2018-Feb-12 03:30N 29°36' W 090°41'3 7.0
2018-Feb-12 03:01N 29°35' W 090°37'3 5.8
2018-Feb-12 02:30N 29°34' W 090°34'2 2.9
2018-Feb-12 01:44N 29°34' W 090°32'1 5.0
2018-Feb-12 01:29N 29°34' W 090°30'3 0.1
2018-Feb-10 18:26N 29°34' W 090°34'3 6.1
2018-Feb-10 17:59N 29°35' W 090°37'4 7.5
2018-Feb-10 17:30N 29°36' W 090°40'2 4.3
2018-Feb-10 17:00N 29°35' W 090°43'1 1.2
2018-Feb-10 16:25N 29°35' W 090°43'  
Track history (hours):
 
Tides and Currents Weather Stations Pressure Air Temp Water Temp Dewpoint Dewpoint Depression Visibility Wind Speed Wind Dir Waves Ship Positions

MiSS Kyhlan

Owner: DARBOR Marine, LLC, Kenner, LA. More information available from US FCC via Universal Licensing System and Coast Guard Vessel Documentation Center.

Last reported at 2018-Feb-18 23:21 UTC. Time now 2018-Feb-20 07:35 UTC.
Position N 29°35' W 090°43'.

Length 15 m.

Type: Ship. MMSI: 366960410.

Date/timePositionNaut miles runAvg speedWind from/ knotsBaromVisibWave heightAir tempDewpointWater temp
2018-Feb-18 23:21N 29°35' W 090°43'  
2018-Feb-12 19:47N 29°35' W 090°43'0 0.0
2018-Feb-12 19:31N 29°35' W 090°43'0 0.0
2018-Feb-12 18:55N 29°35' W 090°43'0 0.0
2018-Feb-12 18:28N 29°35' W 090°43'0 0.0
2018-Feb-12 17:58N 29°35' W 090°43'0 0.0
2018-Feb-12 17:30N 29°35' W 090°43'1 1.4
2018-Feb-12 17:01N 29°35' W 090°43'2 4.3
2018-Feb-12 16:31N 29°36' W 090°40'0 0.4
2018-Feb-12 15:54N 29°36' W 090°40'2 5.5
2018-Feb-12 15:30N 29°36' W 090°43'2 3.3
2018-Feb-12 15:01N 29°35' W 090°43'0 0.0
2018-Feb-12 14:30N 29°35' W 090°43'0 0.0
2018-Feb-12 13:59N 29°35' W 090°43'0 0.0
2018-Feb-12 13:31N 29°35' W 090°43'0 0.0
2018-Feb-12 13:00N 29°35' W 090°43'0 0.0
2018-Feb-12 12:29N 29°35' W 090°43'0 0.0
2018-Feb-12 11:59N 29°35' W 090°43'0 0.0
2018-Feb-12 11:30N 29°35' W 090°43'0 0.0
2018-Feb-12 11:01N 29°35' W 090°43'0 0.0
2018-Feb-12 10:27N 29°35' W 090°43'0 0.0
2018-Feb-12 09:58N 29°35' W 090°43'0 0.0
2018-Feb-12 09:26N 29°35' W 090°43'0 0.0
2018-Feb-12 08:58N 29°35' W 090°43'0 0.0
2018-Feb-12 08:30N 29°35' W 090°43'0 0.0
2018-Feb-12 08:00N 29°35' W 090°43'0 0.0
2018-Feb-12 07:30N 29°35' W 090°43'0 0.0
2018-Feb-12 06:54N 29°35' W 090°43'0 0.0
2018-Feb-12 06:29N 29°35' W 090°43'0 0.0
2018-Feb-12 06:00N 29°35' W 090°43'0 0.0
2018-Feb-12 05:30N 29°35' W 090°43'0 0.0
2018-Feb-12 05:01N 29°35' W 090°43'0 0.0
2018-Feb-12 04:30N 29°35' W 090°43'0 0.4
2018-Feb-12 04:01N 29°35' W 090°43'2 4.4
2018-Feb-12 03:30N 29°36' W 090°41'3 7.0
2018-Feb-12 03:01N 29°35' W 090°37'3 5.8
2018-Feb-12 02:30N 29°34' W 090°34'2 2.9
2018-Feb-12 01:44N 29°34' W 090°32'1 5.0
2018-Feb-12 01:29N 29°34' W 090°30'3 0.1
2018-Feb-10 18:26N 29°34' W 090°34'3 6.1
2018-Feb-10 17:59N 29°35' W 090°37'4 7.5
2018-Feb-10 17:30N 29°36' W 090°40'2 4.3
2018-Feb-10 17:00N 29°35' W 090°43'1 1.2
2018-Feb-10 16:25N 29°35' W 090°43'  

Dump ship's entire track history